sensor_id;sensor_type;location;lat;lon;timestamp;pressure;altitude;pressure_sealevel;temperature;humidity
50292;BME280;36190;54.980;73.388;2022-10-16T00:00:43;100829.50;;;10.88;69.45
50292;BME280;36190;54.980;73.388;2022-10-16T00:03:11;100825.16;;;10.87;69.48
50292;BME280;36190;54.980;73.388;2022-10-16T00:05:41;100821.81;;;10.85;69.16
50292;BME280;36190;54.980;73.388;2022-10-16T00:08:10;100825.69;;;10.91;69.49
50292;BME280;36190;54.980;73.388;2022-10-16T00:10:38;100820.81;;;10.86;70.11
50292;BME280;36190;54.980;73.388;2022-10-16T00:13:06;100822.31;;;10.80;70.69
50292;BME280;36190;54.980;73.388;2022-10-16T00:15:34;100813.72;;;10.68;71.01
50292;BME280;36190;54.980;73.388;2022-10-16T00:18:03;100813.00;;;10.58;71.45
50292;BME280;36190;54.980;73.388;2022-10-16T00:20:33;100819.28;;;10.49;71.96
50292;BME280;36190;54.980;73.388;2022-10-16T00:23:04;100818.19;;;10.41;72.13
50292;BME280;36190;54.980;73.388;2022-10-16T00:25:31;100817.00;;;10.36;72.26
50292;BME280;36190;54.980;73.388;2022-10-16T00:28:00;100817.47;;;10.31;72.60
50292;BME280;36190;54.980;73.388;2022-10-16T00:30:27;100821.75;;;10.24;72.74
50292;BME280;36190;54.980;73.388;2022-10-16T00:32:54;100822.34;;;10.17;72.77
50292;BME280;36190;54.980;73.388;2022-10-16T00:35:22;100818.34;;;10.13;73.14
50292;BME280;36190;54.980;73.388;2022-10-16T00:37:49;100819.13;;;10.06;73.53
50292;BME280;36190;54.980;73.388;2022-10-16T00:40:18;100821.56;;;9.99;73.91
50292;BME280;36190;54.980;73.388;2022-10-16T00:42:45;100810.69;;;9.92;74.02
50292;BME280;36190;54.980;73.388;2022-10-16T00:45:13;100806.94;;;9.85;73.85
50292;BME280;36190;54.980;73.388;2022-10-16T00:47:42;100802.75;;;9.82;74.16
50292;BME280;36190;54.980;73.388;2022-10-16T00:50:17;100804.75;;;9.80;74.12
50292;BME280;36190;54.980;73.388;2022-10-16T00:52:47;100808.41;;;9.79;73.90
50292;BME280;36190;54.980;73.388;2022-10-16T00:55:17;100815.72;;;9.77;73.97
50292;BME280;36190;54.980;73.388;2022-10-16T00:57:45;100810.38;;;9.77;73.93
50292;BME280;36190;54.980;73.388;2022-10-16T01:00:16;100799.94;;;9.66;74.26
50292;BME280;36190;54.980;73.388;2022-10-16T01:02:44;100808.59;;;9.68;74.31
50292;BME280;36190;54.980;73.388;2022-10-16T01:05:11;100809.38;;;9.60;74.45
50292;BME280;36190;54.980;73.388;2022-10-16T01:07:45;100820.78;;;9.52;74.49
50292;BME280;36190;54.980;73.388;2022-10-16T01:10:27;100816.22;;;9.44;74.00
50292;BME280;36190;54.980;73.388;2022-10-16T01:13:01;100817.34;;;9.42;73.86
50292;BME280;36190;54.980;73.388;2022-10-16T01:15:34;100813.31;;;9.38;73.75
50292;BME280;36190;54.980;73.388;2022-10-16T01:18:07;100811.13;;;9.33;74.30
50292;BME280;36190;54.980;73.388;2022-10-16T01:20:37;100819.56;;;9.28;74.52
50292;BME280;36190;54.980;73.388;2022-10-16T01:23:17;100817.16;;;9.25;74.79
50292;BME280;36190;54.980;73.388;2022-10-16T01:25:59;100812.16;;;9.22;74.40
50292;BME280;36190;54.980;73.388;2022-10-16T01:28:36;100811.56;;;9.28;73.71
50292;BME280;36190;54.980;73.388;2022-10-16T01:31:06;100821.31;;;9.38;73.10
50292;BME280;36190;54.980;73.388;2022-10-16T01:33:41;100804.47;;;9.37;73.04
50292;BME280;36190;54.980;73.388;2022-10-16T01:36:12;100819.09;;;9.51;72.96
50292;BME280;36190;54.980;73.388;2022-10-16T01:38:40;100807.19;;;9.55;73.21
50292;BME280;36190;54.980;73.388;2022-10-16T01:41:15;100810.53;;;9.57;73.12
50292;BME280;36190;54.980;73.388;2022-10-16T01:43:48;100794.53;;;9.57;73.32
50292;BME280;36190;54.980;73.388;2022-10-16T01:46:19;100794.94;;;9.62;73.27
50292;BME280;36190;54.980;73.388;2022-10-16T01:48:48;100801.94;;;9.63;72.60
50292;BME280;36190;54.980;73.388;2022-10-16T01:51:18;100806.56;;;9.61;72.20
50292;BME280;36190;54.980;73.388;2022-10-16T01:53:49;100780.47;;;9.47;71.50
50292;BME280;36190;54.980;73.388;2022-10-16T01:56:20;100804.06;;;9.60;70.88
50292;BME280;36190;54.980;73.388;2022-10-16T01:58:54;100786.16;;;9.52;70.18
50292;BME280;36190;54.980;73.388;2022-10-16T02:01:24;100790.19;;;9.56;70.17
50292;BME280;36190;54.980;73.388;2022-10-16T02:03:55;100800.94;;;9.65;69.76
50292;BME280;36190;54.980;73.388;2022-10-16T02:06:26;100801.59;;;9.67;69.73
50292;BME280;36190;54.980;73.388;2022-10-16T02:08:53;100798.66;;;9.70;69.26
50292;BME280;36190;54.980;73.388;2022-10-16T02:11:21;100795.81;;;9.71;68.96
50292;BME280;36190;54.980;73.388;2022-10-16T02:13:53;100799.47;;;9.70;68.70
50292;BME280;36190;54.980;73.388;2022-10-16T02:16:23;100796.06;;;9.78;68.99
50292;BME280;36190;54.980;73.388;2022-10-16T02:18:58;100787.38;;;9.76;68.39
50292;BME280;36190;54.980;73.388;2022-10-16T02:21:29;100785.03;;;9.73;68.06
50292;BME280;36190;54.980;73.388;2022-10-16T02:24:03;100789.75;;;9.79;67.99
50292;BME280;36190;54.980;73.388;2022-10-16T02:26:36;100794.09;;;9.80;67.84
50292;BME280;36190;54.980;73.388;2022-10-16T02:29:15;100793.75;;;9.83;67.53
50292;BME280;36190;54.980;73.388;2022-10-16T02:31:48;100787.28;;;9.86;67.29
50292;BME280;36190;54.980;73.388;2022-10-16T02:34:17;100801.28;;;9.88;67.08
50292;BME280;36190;54.980;73.388;2022-10-16T02:36:45;100793.31;;;9.88;66.87
50292;BME280;36190;54.980;73.388;2022-10-16T02:39:15;100796.88;;;9.97;66.77
50292;BME280;36190;54.980;73.388;2022-10-16T02:41:43;100802.59;;;10.02;66.44
50292;BME280;36190;54.980;73.388;2022-10-16T02:44:12;100798.28;;;10.09;65.96
50292;BME280;36190;54.980;73.388;2022-10-16T02:46:39;100799.34;;;10.16;65.95
50292;BME280;36190;54.980;73.388;2022-10-16T02:49:06;100796.06;;;10.23;65.50
50292;BME280;36190;54.980;73.388;2022-10-16T02:51:34;100802.47;;;10.30;65.60
50292;BME280;36190;54.980;73.388;2022-10-16T02:54:01;100794.84;;;10.35;65.27
50292;BME280;36190;54.980;73.388;2022-10-16T02:56:29;100795.19;;;10.40;65.02
50292;BME280;36190;54.980;73.388;2022-10-16T02:58:57;100797.41;;;10.45;65.07
50292;BME280;36190;54.980;73.388;2022-10-16T03:01:25;100796.13;;;10.49;64.67
50292;BME280;36190;54.980;73.388;2022-10-16T03:03:53;100788.94;;;10.50;64.50
50292;BME280;36190;54.980;73.388;2022-10-16T03:06:20;100781.63;;;10.52;64.26
50292;BME280;36190;54.980;73.388;2022-10-16T03:08:47;100784.63;;;10.57;64.33
50292;BME280;36190;54.980;73.388;2022-10-16T03:11:15;100784.34;;;10.60;64.29
50292;BME280;36190;54.980;73.388;2022-10-16T03:13:42;100780.19;;;10.66;63.89
50292;BME280;36190;54.980;73.388;2022-10-16T03:16:10;100781.38;;;10.71;63.51
50292;BME280;36190;54.980;73.388;2022-10-16T03:18:38;100782.41;;;10.79;63.26
50292;BME280;36190;54.980;73.388;2022-10-16T03:21:06;100784.44;;;10.85;63.11
50292;BME280;36190;54.980;73.388;2022-10-16T03:23:33;100779.16;;;10.93;62.94
50292;BME280;36190;54.980;73.388;2022-10-16T03:26:01;100777.50;;;11.00;62.91
50292;BME280;36190;54.980;73.388;2022-10-16T03:28:28;100766.66;;;11.02;62.61
50292;BME280;36190;54.980;73.388;2022-10-16T03:30:55;100784.88;;;11.15;62.64
50292;BME280;36190;54.980;73.388;2022-10-16T03:33:23;100783.22;;;11.22;62.75
50292;BME280;36190;54.980;73.388;2022-10-16T03:35:55;100781.56;;;11.30;63.09
50292;BME280;36190;54.980;73.388;2022-10-16T03:38:22;100774.25;;;11.40;63.26
50292;BME280;36190;54.980;73.388;2022-10-16T03:40:49;100771.44;;;11.50;63.27
50292;BME280;36190;54.980;73.388;2022-10-16T03:43:17;100773.81;;;11.61;63.60
50292;BME280;36190;54.980;73.388;2022-10-16T03:45:44;100772.81;;;11.71;63.71
50292;BME280;36190;54.980;73.388;2022-10-16T03:48:11;100769.94;;;11.80;63.62
50292;BME280;36190;54.980;73.388;2022-10-16T03:50:39;100772.28;;;11.92;63.65
50292;BME280;36190;54.980;73.388;2022-10-16T03:53:08;100772.28;;;12.00;63.10
50292;BME280;36190;54.980;73.388;2022-10-16T03:55:35;100773.13;;;12.09;62.58
50292;BME280;36190;54.980;73.388;2022-10-16T03:58:03;100767.28;;;12.14;62.11
50292;BME280;36190;54.980;73.388;2022-10-16T04:00:30;100772.97;;;12.19;61.34
50292;BME280;36190;54.980;73.388;2022-10-16T04:02:57;100775.97;;;12.24;60.81
50292;BME280;36190;54.980;73.388;2022-10-16T04:05:25;100771.44;;;12.33;60.04
50292;BME280;36190;54.980;73.388;2022-10-16T04:07:52;100776.25;;;12.46;59.46
50292;BME280;36190;54.980;73.388;2022-10-16T04:10:22;100782.06;;;12.58;58.56
50292;BME280;36190;54.980;73.388;2022-10-16T04:12:49;100776.53;;;12.68;58.06
50292;BME280;36190;54.980;73.388;2022-10-16T04:15:16;100774.47;;;12.78;57.56
50292;BME280;36190;54.980;73.388;2022-10-16T04:17:44;100773.41;;;12.87;56.86
50292;BME280;36190;54.980;73.388;2022-10-16T04:20:11;100781.09;;;12.99;56.36
50292;BME280;36190;54.980;73.388;2022-10-16T04:22:38;100767.34;;;13.02;55.73
50292;BME280;36190;54.980;73.388;2022-10-16T04:25:06;100770.50;;;13.05;55.58
50292;BME280;36190;54.980;73.388;2022-10-16T04:27:35;100768.31;;;13.09;55.29
50292;BME280;36190;54.980;73.388;2022-10-16T04:30:03;100768.09;;;13.19;55.02
50292;BME280;36190;54.980;73.388;2022-10-16T04:32:31;100768.88;;;13.28;54.67
50292;BME280;36190;54.980;73.388;2022-10-16T04:34:58;100775.88;;;13.37;54.48
50292;BME280;36190;54.980;73.388;2022-10-16T04:37:26;100773.16;;;13.45;54.46
50292;BME280;36190;54.980;73.388;2022-10-16T04:39:53;100773.44;;;13.51;54.29
50292;BME280;36190;54.980;73.388;2022-10-16T04:42:21;100772.25;;;13.53;54.24
50292;BME280;36190;54.980;73.388;2022-10-16T04:44:50;100772.09;;;13.55;53.94
50292;BME280;36190;54.980;73.388;2022-10-16T04:47:17;100764.69;;;13.57;53.91
50292;BME280;36190;54.980;73.388;2022-10-16T04:49:45;100773.63;;;13.72;53.55
50292;BME280;36190;54.980;73.388;2022-10-16T04:52:12;100768.84;;;13.83;53.29
50292;BME280;36190;54.980;73.388;2022-10-16T04:54:39;100760.38;;;13.94;52.89
50292;BME280;36190;54.980;73.388;2022-10-16T04:57:07;100769.28;;;14.10;52.53
50292;BME280;36190;54.980;73.388;2022-10-16T04:59:34;100759.59;;;14.24;52.15
50292;BME280;36190;54.980;73.388;2022-10-16T05:02:03;100758.97;;;14.37;52.00
50292;BME280;36190;54.980;73.388;2022-10-16T05:04:30;100758.31;;;14.50;51.81
50292;BME280;36190;54.980;73.388;2022-10-16T05:06:58;100759.69;;;14.61;51.39
50292;BME280;36190;54.980;73.388;2022-10-16T05:09:25;100755.91;;;14.70;50.98
50292;BME280;36190;54.980;73.388;2022-10-16T05:11:52;100764.91;;;14.77;50.67
50292;BME280;36190;54.980;73.388;2022-10-16T05:14:20;100761.84;;;14.80;50.32
50292;BME280;36190;54.980;73.388;2022-10-16T05:16:47;100756.84;;;14.77;50.06
50292;BME280;36190;54.980;73.388;2022-10-16T05:19:16;100756.91;;;14.69;49.59
50292;BME280;36190;54.980;73.388;2022-10-16T05:21:43;100757.75;;;14.54;49.87
50292;BME280;36190;54.980;73.388;2022-10-16T05:24:11;100755.72;;;14.41;49.93
50292;BME280;36190;54.980;73.388;2022-10-16T05:26:38;100757.66;;;14.33;49.76
50292;BME280;36190;54.980;73.388;2022-10-16T05:29:05;100753.00;;;14.26;49.52
50292;BME280;36190;54.980;73.388;2022-10-16T05:31:33;100752.28;;;14.33;49.33
50292;BME280;36190;54.980;73.388;2022-10-16T05:34:00;100761.56;;;14.45;49.10
50292;BME280;36190;54.980;73.388;2022-10-16T05:36:29;100762.84;;;14.49;48.85
50292;BME280;36190;54.980;73.388;2022-10-16T05:38:57;100764.59;;;14.57;49.21
50292;BME280;36190;54.980;73.388;2022-10-16T05:41:24;100767.00;;;14.67;48.79
50292;BME280;36190;54.980;73.388;2022-10-16T05:43:52;100757.94;;;14.68;48.65
50292;BME280;36190;54.980;73.388;2022-10-16T05:46:19;100765.34;;;14.66;48.71
50292;BME280;36190;54.980;73.388;2022-10-16T05:48:47;100761.91;;;14.72;48.82
50292;BME280;36190;54.980;73.388;2022-10-16T05:51:14;100762.94;;;14.86;48.52
50292;BME280;36190;54.980;73.388;2022-10-16T05:53:43;100762.25;;;14.99;48.41
50292;BME280;36190;54.980;73.388;2022-10-16T05:56:11;100762.81;;;15.09;48.22
50292;BME280;36190;54.980;73.388;2022-10-16T05:58:40;100765.75;;;15.15;48.07
50292;BME280;36190;54.980;73.388;2022-10-16T06:01:10;100760.00;;;15.18;48.22
50292;BME280;36190;54.980;73.388;2022-10-16T06:03:37;100761.69;;;15.19;48.27
50292;BME280;36190;54.980;73.388;2022-10-16T06:06:08;100757.97;;;15.20;47.94
50292;BME280;36190;54.980;73.388;2022-10-16T06:08:37;100756.66;;;15.16;47.87
50292;BME280;36190;54.980;73.388;2022-10-16T06:11:07;100757.44;;;15.09;47.96
50292;BME280;36190;54.980;73.388;2022-10-16T06:13:34;100763.56;;;15.03;48.14
50292;BME280;36190;54.980;73.388;2022-10-16T06:16:03;100757.34;;;15.03;48.01
50292;BME280;36190;54.980;73.388;2022-10-16T06:18:30;100757.16;;;15.04;48.07
50292;BME280;36190;54.980;73.388;2022-10-16T06:20:58;100758.75;;;14.98;47.87
50292;BME280;36190;54.980;73.388;2022-10-16T06:23:25;100758.75;;;14.83;48.08
50292;BME280;36190;54.980;73.388;2022-10-16T06:26:05;100752.13;;;14.79;47.99
50292;BME280;36190;54.980;73.388;2022-10-16T06:28:33;100748.66;;;14.70;48.30
50292;BME280;36190;54.980;73.388;2022-10-16T06:31:00;100746.06;;;14.62;48.36
50292;BME280;36190;54.980;73.388;2022-10-16T06:33:28;100752.31;;;14.48;48.59
50292;BME280;36190;54.980;73.388;2022-10-16T06:36:00;100743.22;;;14.34;49.03
50292;BME280;36190;54.980;73.388;2022-10-16T06:38:28;100746.81;;;14.26;49.37
50292;BME280;36190;54.980;73.388;2022-10-16T06:40:55;100738.94;;;14.24;49.75
50292;BME280;36190;54.980;73.388;2022-10-16T06:43:24;100740.72;;;14.32;49.63
50292;BME280;36190;54.980;73.388;2022-10-16T06:45:52;100746.25;;;14.46;49.55
50292;BME280;36190;54.980;73.388;2022-10-16T06:48:20;100739.34;;;14.51;49.79
50292;BME280;36190;54.980;73.388;2022-10-16T06:50:56;100734.78;;;14.52;50.04
50292;BME280;36190;54.980;73.388;2022-10-16T06:53:24;100725.91;;;14.51;50.41
50292;BME280;36190;54.980;73.388;2022-10-16T06:55:51;100731.94;;;14.53;50.54
50292;BME280;36190;54.980;73.388;2022-10-16T06:58:19;100731.72;;;14.55;50.80
50292;BME280;36190;54.980;73.388;2022-10-16T07:00:48;100718.75;;;14.58;50.99
50292;BME280;36190;54.980;73.388;2022-10-16T07:03:15;100719.22;;;14.62;51.14
50292;BME280;36190;54.980;73.388;2022-10-16T07:05:43;100719.88;;;14.64;51.37
50292;BME280;36190;54.980;73.388;2022-10-16T07:08:10;100722.94;;;14.61;51.47
50292;BME280;36190;54.980;73.388;2022-10-16T07:10:38;100713.03;;;14.62;51.43
50292;BME280;36190;54.980;73.388;2022-10-16T07:13:05;100714.69;;;14.78;51.42
50292;BME280;36190;54.980;73.388;2022-10-16T07:15:33;100711.41;;;14.97;51.19
50292;BME280;36190;54.980;73.388;2022-10-16T07:18:02;100710.03;;;15.23;50.85
50292;BME280;36190;54.980;73.388;2022-10-16T07:20:29;100707.72;;;15.42;50.48
50292;BME280;36190;54.980;73.388;2022-10-16T07:22:57;100705.34;;;15.54;50.23
50292;BME280;36190;54.980;73.388;2022-10-16T07:25:24;100708.34;;;15.66;50.03
50292;BME280;36190;54.980;73.388;2022-10-16T07:27:51;100709.03;;;15.75;50.06
50292;BME280;36190;54.980;73.388;2022-10-16T07:30:21;100698.50;;;15.80;49.88
50292;BME280;36190;54.980;73.388;2022-10-16T07:32:49;100705.19;;;15.84;49.87
50292;BME280;36190;54.980;73.388;2022-10-16T07:35:17;100707.00;;;15.77;50.12
50292;BME280;36190;54.980;73.388;2022-10-16T07:37:45;100696.69;;;15.59;50.38
50292;BME280;36190;54.980;73.388;2022-10-16T07:40:13;100697.84;;;15.49;50.85
50292;BME280;36190;54.980;73.388;2022-10-16T07:42:40;100692.09;;;15.52;50.81
50292;BME280;36190;54.980;73.388;2022-10-16T07:45:08;100691.50;;;15.57;50.94
50292;BME280;36190;54.980;73.388;2022-10-16T07:47:35;100682.34;;;15.73;50.81
50292;BME280;36190;54.980;73.388;2022-10-16T07:50:03;100680.66;;;15.94;50.70
50292;BME280;36190;54.980;73.388;2022-10-16T07:52:32;100674.28;;;16.02;50.41
50292;BME280;36190;54.980;73.388;2022-10-16T07:55:00;100678.22;;;16.06;50.39
50292;BME280;36190;54.980;73.388;2022-10-16T07:57:27;100664.38;;;16.02;50.55
50292;BME280;36190;54.980;73.388;2022-10-16T07:59:54;100673.00;;;15.98;50.70
50292;BME280;36190;54.980;73.388;2022-10-16T08:02:22;100673.06;;;16.04;50.69
50292;BME280;36190;54.980;73.388;2022-10-16T08:04:49;100666.91;;;16.17;50.38
50292;BME280;36190;54.980;73.388;2022-10-16T08:07:17;100667.84;;;16.38;50.15
50292;BME280;36190;54.980;73.388;2022-10-16T08:09:49;100662.94;;;16.48;49.77
50292;BME280;36190;54.980;73.388;2022-10-16T08:12:17;100665.03;;;16.53;49.79
50292;BME280;36190;54.980;73.388;2022-10-16T08:14:44;100658.59;;;16.61;49.81
50292;BME280;36190;54.980;73.388;2022-10-16T08:17:14;100663.38;;;16.66;49.41
50292;BME280;36190;54.980;73.388;2022-10-16T08:19:44;100658.41;;;16.56;49.47
50292;BME280;36190;54.980;73.388;2022-10-16T08:22:12;100661.28;;;16.47;49.66
50292;BME280;36190;54.980;73.388;2022-10-16T08:24:39;100660.25;;;16.48;49.59
50292;BME280;36190;54.980;73.388;2022-10-16T08:27:08;100658.66;;;16.68;49.36
50292;BME280;36190;54.980;73.388;2022-10-16T08:29:35;100657.41;;;16.70;49.22
50292;BME280;36190;54.980;73.388;2022-10-16T08:32:04;100662.56;;;16.65;49.18
50292;BME280;36190;54.980;73.388;2022-10-16T08:34:31;100655.97;;;16.68;49.15
50292;BME280;36190;54.980;73.388;2022-10-16T08:36:59;100658.59;;;16.61;49.15
50292;BME280;36190;54.980;73.388;2022-10-16T08:39:26;100666.47;;;16.56;49.22
50292;BME280;36190;54.980;73.388;2022-10-16T08:42:15;100653.22;;;16.61;49.06
50292;BME280;36190;54.980;73.388;2022-10-16T08:47:49;100642.19;;;16.49;49.31
50292;BME280;36190;54.980;73.388;2022-10-16T08:50:23;100638.88;;;16.40;49.46
50292;BME280;36190;54.980;73.388;2022-10-16T08:52:52;100641.50;;;16.33;49.53
50292;BME280;36190;54.980;73.388;2022-10-16T08:55:31;100646.63;;;16.21;49.80
50292;BME280;36190;54.980;73.388;2022-10-16T08:58:02;100645.75;;;16.07;50.06
50292;BME280;36190;54.980;73.388;2022-10-16T09:00:36;100645.13;;;16.05;50.29
50292;BME280;36190;54.980;73.388;2022-10-16T09:03:11;100640.38;;;16.14;50.28
50292;BME280;36190;54.980;73.388;2022-10-16T09:05:53;100642.97;;;16.36;49.95
50292;BME280;36190;54.980;73.388;2022-10-16T09:08:30;100638.72;;;16.62;49.45
50292;BME280;36190;54.980;73.388;2022-10-16T09:11:05;100640.84;;;16.73;49.22
50292;BME280;36190;54.980;73.388;2022-10-16T09:13:45;100638.53;;;16.70;49.61
50292;BME280;36190;54.980;73.388;2022-10-16T09:16:18;100641.41;;;16.62;50.10
50292;BME280;36190;54.980;73.388;2022-10-16T09:18:52;100639.50;;;16.42;50.59
50292;BME280;36190;54.980;73.388;2022-10-16T09:21:23;100638.72;;;16.13;51.11
50292;BME280;36190;54.980;73.388;2022-10-16T09:23:51;100638.53;;;15.86;51.84
50292;BME280;36190;54.980;73.388;2022-10-16T09:26:19;100632.59;;;15.62;52.39
50292;BME280;36190;54.980;73.388;2022-10-16T09:28:52;100628.28;;;15.39;52.97
50292;BME280;36190;54.980;73.388;2022-10-16T09:31:21;100635.66;;;15.31;53.41
50292;BME280;36190;54.980;73.388;2022-10-16T09:33:52;100633.69;;;15.18;53.76
50292;BME280;36190;54.980;73.388;2022-10-16T09:36:21;100633.81;;;15.09;54.04
50292;BME280;36190;54.980;73.388;2022-10-16T09:39:02;100609.63;;;14.88;54.46
50292;BME280;36190;54.980;73.388;2022-10-16T09:41:30;100634.44;;;14.90;54.70
50292;BME280;36190;54.980;73.388;2022-10-16T09:44:00;100628.28;;;14.74;54.86
50292;BME280;36190;54.980;73.388;2022-10-16T09:46:29;100635.91;;;14.55;55.27
50292;BME280;36190;54.980;73.388;2022-10-16T09:48:58;100626.03;;;14.41;55.67
50292;BME280;36190;54.980;73.388;2022-10-16T09:51:28;100622.06;;;14.22;56.30
50292;BME280;36190;54.980;73.388;2022-10-16T09:53:58;100620.72;;;14.11;56.71
50292;BME280;36190;54.980;73.388;2022-10-16T09:56:27;100623.97;;;14.06;56.92
50292;BME280;36190;54.980;73.388;2022-10-16T09:58:56;100625.31;;;14.02;57.18
50292;BME280;36190;54.980;73.388;2022-10-16T10:01:30;100621.44;;;14.05;57.65
50292;BME280;36190;54.980;73.388;2022-10-16T10:03:58;100625.97;;;14.19;57.12
50292;BME280;36190;54.980;73.388;2022-10-16T10:06:29;100625.09;;;14.34;57.02
50292;BME280;36190;54.980;73.388;2022-10-16T10:09:02;100628.59;;;14.49;57.20
50292;BME280;36190;54.980;73.388;2022-10-16T10:11:40;100631.34;;;14.71;56.85
50292;BME280;36190;54.980;73.388;2022-10-16T10:14:23;100629.72;;;14.92;56.45
50292;BME280;36190;54.980;73.388;2022-10-16T10:17:14;100626.00;;;15.15;56.34
50292;BME280;36190;54.980;73.388;2022-10-16T10:19:46;100623.19;;;15.23;55.98
50292;BME280;36190;54.980;73.388;2022-10-16T10:22:32;100616.47;;;15.12;56.31
50292;BME280;36190;54.980;73.388;2022-10-16T10:25:19;100610.03;;;14.84;57.12
50292;BME280;36190;54.980;73.388;2022-10-16T10:28:10;100616.25;;;14.70;57.58
50292;BME280;36190;54.980;73.388;2022-10-16T10:30:51;100610.72;;;14.56;57.75
50292;BME280;36190;54.980;73.388;2022-10-16T10:33:29;100611.78;;;14.40;58.00
50292;BME280;36190;54.980;73.388;2022-10-16T10:36:06;100603.75;;;14.25;58.50
50292;BME280;36190;54.980;73.388;2022-10-16T10:38:46;100613.31;;;14.13;59.17
50292;BME280;36190;54.980;73.388;2022-10-16T10:41:40;100609.78;;;13.97;59.49
50292;BME280;36190;54.980;73.388;2022-10-16T10:44:18;100601.63;;;13.75;60.21
50292;BME280;36190;54.980;73.388;2022-10-16T10:46:51;100607.75;;;13.69;60.37
50292;BME280;36190;54.980;73.388;2022-10-16T10:49:40;100607.38;;;13.72;60.55
50292;BME280;36190;54.980;73.388;2022-10-16T10:52:34;100609.41;;;13.70;60.82
50292;BME280;36190;54.980;73.388;2022-10-16T10:55:10;100598.03;;;13.68;61.04
50292;BME280;36190;54.980;73.388;2022-10-16T10:57:57;100591.81;;;13.53;61.07
50292;BME280;36190;54.980;73.388;2022-10-16T11:00:31;100603.84;;;13.57;61.08
50292;BME280;36190;54.980;73.388;2022-10-16T11:03:13;100602.44;;;13.46;61.96
50292;BME280;36190;54.980;73.388;2022-10-16T11:05:49;100591.75;;;13.23;62.44
50292;BME280;36190;54.980;73.388;2022-10-16T11:08:19;100605.69;;;13.18;62.56
50292;BME280;36190;54.980;73.388;2022-10-16T11:10:51;100607.75;;;13.07;62.96
50292;BME280;36190;54.980;73.388;2022-10-16T11:13:26;100610.97;;;13.03;62.85
50292;BME280;36190;54.980;73.388;2022-10-16T11:15:59;100605.34;;;12.98;62.57
50292;BME280;36190;54.980;73.388;2022-10-16T11:18:32;100599.03;;;12.90;62.72
50292;BME280;36190;54.980;73.388;2022-10-16T11:21:06;100593.66;;;12.90;62.63
50292;BME280;36190;54.980;73.388;2022-10-16T11:23:40;100589.34;;;12.89;62.75
50292;BME280;36190;54.980;73.388;2022-10-16T11:26:14;100591.81;;;12.91;62.82
50292;BME280;36190;54.980;73.388;2022-10-16T11:28:45;100594.50;;;12.91;62.81
50292;BME280;36190;54.980;73.388;2022-10-16T11:31:19;100576.16;;;12.79;62.93
50292;BME280;36190;54.980;73.388;2022-10-16T11:33:54;100590.34;;;12.88;63.26
50292;BME280;36190;54.980;73.388;2022-10-16T11:36:33;100597.16;;;12.91;63.87
50292;BME280;36190;54.980;73.388;2022-10-16T11:39:08;100596.03;;;12.85;64.03
50292;BME280;36190;54.980;73.388;2022-10-16T11:41:43;100598.44;;;12.80;64.22
50292;BME280;36190;54.980;73.388;2022-10-16T11:44:24;100594.59;;;12.74;64.65
50292;BME280;36190;54.980;73.388;2022-10-16T11:47:02;100592.81;;;12.67;64.84
50292;BME280;36190;54.980;73.388;2022-10-16T11:49:33;100587.16;;;12.61;64.64
50292;BME280;36190;54.980;73.388;2022-10-16T11:52:10;100580.69;;;12.56;65.26
50292;BME280;36190;54.980;73.388;2022-10-16T11:54:45;100580.03;;;12.54;65.59
50292;BME280;36190;54.980;73.388;2022-10-16T11:57:19;100567.22;;;12.41;65.53
50292;BME280;36190;54.980;73.388;2022-10-16T11:59:52;100575.22;;;12.49;65.74
50292;BME280;36190;54.980;73.388;2022-10-16T12:05:15;100566.53;;;12.47;66.06
50292;BME280;36190;54.980;73.388;2022-10-16T12:07:53;100566.88;;;12.44;66.35
50292;BME280;36190;54.980;73.388;2022-10-16T12:10:27;100561.88;;;12.41;66.40
50292;BME280;36190;54.980;73.388;2022-10-16T12:12:57;100563.69;;;12.40;66.45
50292;BME280;36190;54.980;73.388;2022-10-16T12:15:26;100562.22;;;12.37;66.97
50292;BME280;36190;54.980;73.388;2022-10-16T12:17:54;100564.88;;;12.37;67.16
50292;BME280;36190;54.980;73.388;2022-10-16T12:20:25;100555.56;;;12.33;67.59
50292;BME280;36190;54.980;73.388;2022-10-16T12:22:56;100551.88;;;12.34;67.48
50292;BME280;36190;54.980;73.388;2022-10-16T12:25:26;100542.72;;;12.29;67.39
50292;BME280;36190;54.980;73.388;2022-10-16T12:27:57;100551.50;;;12.37;67.49
50292;BME280;36190;54.980;73.388;2022-10-16T12:30:26;100539.50;;;12.33;67.53
50292;BME280;36190;54.980;73.388;2022-10-16T12:32:56;100553.00;;;12.40;67.31
50292;BME280;36190;54.980;73.388;2022-10-16T12:35:27;100555.88;;;12.38;67.69
50292;BME280;36190;54.980;73.388;2022-10-16T12:38:05;100548.81;;;12.37;67.65
50292;BME280;36190;54.980;73.388;2022-10-16T12:40:35;100552.22;;;12.31;67.49
50292;BME280;36190;54.980;73.388;2022-10-16T12:43:25;100550.75;;;12.29;67.90
50292;BME280;36190;54.980;73.388;2022-10-16T12:46:01;100554.94;;;12.23;67.92
50292;BME280;36190;54.980;73.388;2022-10-16T12:48:29;100546.59;;;12.18;67.75
50292;BME280;36190;54.980;73.388;2022-10-16T12:50:57;100549.94;;;12.20;67.78
50292;BME280;36190;54.980;73.388;2022-10-16T12:53:26;100552.59;;;12.20;68.07
50292;BME280;36190;54.980;73.388;2022-10-16T12:56:01;100549.59;;;12.23;68.31
50292;BME280;36190;54.980;73.388;2022-10-16T12:58:50;100550.25;;;12.25;68.38
50292;BME280;36190;54.980;73.388;2022-10-16T13:01:33;100554.59;;;12.26;68.42
50292;BME280;36190;54.980;73.388;2022-10-16T13:04:22;100558.28;;;12.25;68.35